createdAt,value
2018-10-18T00:00:49.335Z,21.73
2018-10-18T00:03:16.867Z,18.07
2018-10-18T00:05:44.288Z,17.10
2018-10-18T00:08:11.937Z,14.57
2018-10-18T00:10:39.339Z,15.43
2018-10-18T00:13:06.746Z,14.53
2018-10-18T00:15:34.207Z,17.87
2018-10-18T00:18:01.663Z,17.50
2018-10-18T00:20:29.079Z,17.67
2018-10-18T00:22:56.536Z,14.60
2018-10-18T00:25:23.980Z,14.40
2018-10-18T00:27:51.427Z,17.23
2018-10-18T00:30:18.934Z,16.17
2018-10-18T00:32:46.332Z,14.93
2018-10-18T00:35:13.851Z,14.97
2018-10-18T00:37:41.272Z,15.50
2018-10-18T00:40:10.235Z,14.70
2018-10-18T00:42:37.671Z,13.87
2018-10-18T00:45:06.063Z,14.53
2018-10-18T00:47:33.515Z,15.27
2018-10-18T00:50:01.003Z,13.80
2018-10-18T00:52:28.395Z,20.90
2018-10-18T00:54:55.821Z,14.37
2018-10-18T00:57:23.316Z,13.77
2018-10-18T00:59:50.764Z,13.70
2018-10-18T01:02:18.315Z,15.00
2018-10-18T01:04:45.652Z,14.33
2018-10-18T01:07:13.122Z,14.50
2018-10-18T01:09:40.555Z,17.17
2018-10-18T01:12:08.089Z,15.13
2018-10-18T01:14:35.519Z,16.80
2018-10-18T01:17:04.664Z,14.47
2018-10-18T01:19:33.711Z,16.43
2018-10-18T01:22:01.708Z,15.47
2018-10-18T01:24:29.159Z,13.87
2018-10-18T01:26:56.664Z,15.47
2018-10-18T01:29:24.614Z,15.97
2018-10-18T01:31:52.115Z,16.67
2018-10-18T01:34:19.600Z,17.07
2018-10-18T01:36:47.023Z,16.10
2018-10-18T01:39:14.462Z,15.10
2018-10-18T01:41:41.920Z,17.80
2018-10-18T01:44:10.871Z,15.60
2018-10-18T01:46:38.739Z,17.03
2018-10-18T01:49:06.961Z,17.00
2018-10-18T01:51:35.185Z,15.30
2018-10-18T01:54:03.128Z,16.57
2018-10-18T01:56:30.998Z,16.03
2018-10-18T01:58:58.907Z,13.97
2018-10-18T02:01:27.387Z,16.97
2018-10-18T02:03:54.824Z,17.87
2018-10-18T02:06:22.329Z,15.03
2018-10-18T02:08:49.748Z,16.93
2018-10-18T02:11:17.256Z,16.20
2018-10-18T02:13:44.794Z,14.47
2018-10-18T02:16:12.166Z,21.33
2018-10-18T02:18:39.580Z,14.67
2018-10-18T02:21:07.677Z,16.83
2018-10-18T02:23:35.311Z,15.03
2018-10-18T02:26:02.727Z,17.33
2018-10-18T02:28:30.164Z,17.33
2018-10-18T02:30:57.600Z,14.70
2018-10-18T02:33:25.077Z,14.43
2018-10-18T02:35:52.586Z,16.37
2018-10-18T02:38:20.193Z,16.23
2018-10-18T02:40:47.624Z,14.77
2018-10-18T02:43:15.079Z,15.37
2018-10-18T02:45:42.526Z,16.23
2018-10-18T02:48:10.073Z,13.07
2018-10-18T02:50:37.419Z,13.80
2018-10-18T02:53:04.911Z,15.00
2018-10-18T02:55:32.320Z,12.87
2018-10-18T02:57:59.751Z,12.50
2018-10-18T03:00:27.192Z,13.10
2018-10-18T03:02:54.698Z,13.80
2018-10-18T03:05:22.747Z,15.37
2018-10-18T03:07:50.172Z,15.00
2018-10-18T03:10:17.596Z,12.80
2018-10-18T03:12:45.051Z,16.10
2018-10-18T03:15:12.509Z,12.33
2018-10-18T03:17:39.963Z,13.30
2018-10-18T03:20:07.389Z,13.23
2018-10-18T03:22:34.803Z,12.77
2018-10-18T03:25:02.318Z,13.03
2018-10-18T03:27:29.756Z,12.77
2018-10-18T03:29:57.237Z,13.10
2018-10-18T03:32:24.709Z,13.23
2018-10-18T03:34:52.487Z,13.57
2018-10-18T03:37:19.919Z,13.40
2018-10-18T03:39:47.604Z,14.10
2018-10-18T03:42:15.188Z,14.47
2018-10-18T03:44:42.548Z,13.00
2018-10-18T03:47:10.008Z,14.23
2018-10-18T03:49:37.440Z,15.83
2018-10-18T03:52:05.508Z,16.67
2018-10-18T03:54:33.056Z,15.47
2018-10-18T03:57:00.535Z,14.63
2018-10-18T03:59:28.150Z,15.67
2018-10-18T04:01:55.631Z,13.43
2018-10-18T04:04:23.120Z,13.73
2018-10-18T04:06:50.556Z,13.97
2018-10-18T04:09:17.993Z,15.33
2018-10-18T04:11:45.400Z,15.27
2018-10-18T04:14:12.815Z,15.97
2018-10-18T04:16:40.266Z,18.73
2018-10-18T04:19:07.692Z,15.63
2018-10-18T04:21:35.135Z,14.07
2018-10-18T04:24:02.681Z,14.37
2018-10-18T04:26:30.176Z,17.67
2018-10-18T04:28:57.655Z,15.30
2018-10-18T04:31:25.112Z,18.90
2018-10-18T04:33:52.627Z,15.67
2018-10-18T04:36:20.232Z,14.33
2018-10-18T04:38:47.557Z,15.50
2018-10-18T04:41:14.975Z,15.27
2018-10-18T04:43:46.569Z,16.00
2018-10-18T04:46:13.984Z,18.07
2018-10-18T04:48:41.646Z,19.37
2018-10-18T04:51:09.303Z,15.57
2018-10-18T04:53:36.947Z,16.30
2018-10-18T04:56:04.412Z,17.10
2018-10-18T04:58:32.008Z,17.97
2018-10-18T05:00:59.509Z,13.50
2018-10-18T05:03:26.923Z,14.60
2018-10-18T05:05:55.684Z,14.43
2018-10-18T05:08:24.199Z,15.93
2018-10-18T05:10:51.687Z,13.77
2018-10-18T05:13:19.229Z,15.37
2018-10-18T05:15:46.747Z,16.27
2018-10-18T05:18:14.932Z,18.77
2018-10-18T05:20:42.457Z,21.10
2018-10-18T05:23:09.987Z,16.00
2018-10-18T05:25:37.668Z,15.50
2018-10-18T05:28:05.244Z,16.43
2018-10-18T05:30:32.833Z,16.50
2018-10-18T05:33:00.620Z,24.43
2018-10-18T05:35:28.043Z,19.83
2018-10-18T05:37:55.520Z,20.93
2018-10-18T05:40:22.974Z,17.43
2018-10-18T05:42:50.443Z,20.10
2018-10-18T05:45:17.899Z,19.60
2018-10-18T05:47:45.379Z,22.07
2018-10-18T05:50:12.840Z,23.27
2018-10-18T05:52:40.472Z,19.63
2018-10-18T05:55:09.574Z,21.23
2018-10-18T05:57:37.322Z,26.20
2018-10-18T06:00:07.776Z,25.70
2018-10-18T06:02:35.351Z,24.97
2018-10-18T06:05:02.922Z,23.27
2018-10-18T06:07:30.495Z,20.43
2018-10-18T06:09:58.133Z,24.30
2018-10-18T06:12:25.661Z,19.70
2018-10-18T06:14:53.253Z,18.60
2018-10-18T06:17:20.803Z,20.60
2018-10-18T06:19:48.377Z,19.17
2018-10-18T06:22:15.942Z,20.37
2018-10-18T06:24:43.532Z,26.57
2018-10-18T06:27:11.089Z,22.97
2018-10-18T06:29:38.829Z,30.07
2018-10-18T06:32:06.428Z,25.83
2018-10-18T06:34:33.983Z,20.53
2018-10-18T06:37:01.591Z,20.80
2018-10-18T06:39:29.135Z,20.70
2018-10-18T06:41:58.400Z,23.70
2018-10-18T06:44:26.150Z,20.63
2018-10-18T06:46:53.883Z,23.03
2018-10-18T06:49:21.432Z,22.10
2018-10-18T06:51:49.082Z,22.47
2018-10-18T06:54:16.725Z,24.03
2018-10-18T06:56:44.483Z,28.30
2018-10-18T06:59:12.023Z,23.30
2018-10-18T07:01:39.588Z,21.43
2018-10-18T07:04:07.204Z,24.50
2018-10-18T07:06:34.795Z,25.30
2018-10-18T07:09:03.572Z,24.70
2018-10-18T07:11:31.378Z,28.13
2018-10-18T07:14:00.245Z,24.93
2018-10-18T07:16:28.563Z,27.50
2018-10-18T07:18:56.148Z,29.77
2018-10-18T07:21:23.769Z,22.13
2018-10-18T07:23:51.457Z,24.17
2018-10-18T07:26:19.036Z,20.47
2018-10-18T07:28:46.652Z,25.73
2018-10-18T07:31:14.300Z,26.40
2018-10-18T07:33:41.890Z,25.40
2018-10-18T07:36:09.523Z,24.43
2018-10-18T07:38:37.105Z,24.23
2018-10-18T07:41:04.866Z,31.37
2018-10-18T07:43:32.392Z,27.63
2018-10-18T07:46:00.031Z,25.73
2018-10-18T07:48:28.069Z,26.97
2018-10-18T07:50:55.587Z,28.27
2018-10-18T07:53:23.355Z,24.40
2018-10-18T07:55:50.911Z,27.00
2018-10-18T07:58:18.484Z,30.33
2018-10-18T08:00:46.354Z,33.83
2018-10-18T08:03:13.755Z,27.20
2018-10-18T08:05:41.294Z,28.53
2018-10-18T08:08:08.889Z,28.00
2018-10-18T08:10:36.430Z,33.30
2018-10-18T08:13:04.078Z,27.83
2018-10-18T08:15:31.622Z,35.00
2018-10-18T08:17:59.156Z,36.47
2018-10-18T08:20:26.740Z,32.40
2018-10-18T08:22:54.275Z,27.13
2018-10-18T08:25:21.815Z,34.53
2018-10-18T08:27:49.392Z,33.90
2018-10-18T08:30:17.004Z,29.53
2018-10-18T08:32:44.523Z,34.70
2018-10-18T08:35:12.547Z,35.40
2018-10-18T08:37:40.222Z,42.07
2018-10-18T08:40:07.937Z,52.60
2018-10-18T08:46:36.528Z,46.80
2018-10-18T08:49:04.376Z,58.92
2018-10-18T08:51:31.906Z,65.12
2018-10-18T08:53:59.463Z,62.10
2018-10-18T08:56:27.050Z,64.22
2018-10-18T08:58:55.157Z,67.17
2018-10-18T09:01:22.774Z,66.97
2018-10-18T09:03:50.337Z,69.32
2018-10-18T09:06:17.961Z,64.95
2018-10-18T09:08:45.904Z,73.02
2018-10-18T09:11:13.576Z,74.62
2018-10-18T09:13:41.100Z,74.12
2018-10-18T09:16:08.780Z,72.32
2018-10-18T09:18:36.285Z,70.03
2018-10-18T09:21:03.852Z,63.33
2018-10-18T09:23:31.443Z,71.35
2018-10-18T09:25:59.094Z,76.95
2018-10-18T09:28:26.643Z,77.05
2018-10-18T09:30:54.493Z,69.58
2018-10-18T09:33:22.050Z,71.45
2018-10-18T09:35:49.612Z,68.17
2018-10-18T09:38:17.227Z,65.95
2018-10-18T09:40:45.242Z,67.05
2018-10-18T09:43:12.767Z,64.67
2018-10-18T09:45:40.771Z,56.50
2018-10-18T09:48:08.264Z,56.15
2018-10-18T09:50:35.881Z,57.03
2018-10-18T09:53:03.521Z,58.95
2018-10-18T09:55:31.068Z,60.12
2018-10-18T09:57:58.743Z,47.00
2018-10-18T10:00:31.971Z,47.95
2018-10-18T10:03:05.247Z,61.40
2018-10-18T10:05:32.807Z,54.85
2018-10-18T10:08:00.527Z,51.02
2018-10-18T10:10:28.124Z,59.15
2018-10-18T10:12:55.669Z,50.60
2018-10-18T10:15:23.221Z,51.95
2018-10-18T10:17:50.797Z,44.03
2018-10-18T10:20:18.331Z,53.13
2018-10-18T10:22:46.876Z,51.00
2018-10-18T10:25:14.514Z,47.98
2018-10-18T10:27:42.029Z,49.83
2018-10-18T10:30:09.761Z,50.35
2018-10-18T10:32:37.331Z,47.60
2018-10-18T10:35:05.497Z,42.90
2018-10-18T10:37:33.100Z,49.55
2018-10-18T10:40:00.812Z,41.45
2018-10-18T10:42:28.391Z,46.55
2018-10-18T10:44:56.005Z,45.48
2018-10-18T10:47:23.559Z,55.55
2018-10-18T10:49:51.155Z,44.63
2018-10-18T10:52:18.845Z,42.80
2018-10-18T10:54:46.479Z,41.15
2018-10-18T10:57:14.129Z,38.13
2018-10-18T10:59:41.620Z,40.55
2018-10-18T11:02:09.237Z,37.45
2018-10-18T11:04:36.778Z,39.23
2018-10-18T11:07:04.538Z,40.35
2018-10-18T11:09:32.186Z,37.83
2018-10-18T11:11:59.765Z,35.80
2018-10-18T11:14:27.355Z,33.85
2018-10-18T11:16:54.938Z,36.15
2018-10-18T11:19:22.497Z,35.00
2018-10-18T11:21:50.141Z,36.20
2018-10-18T11:24:17.804Z,32.50
2018-10-18T11:26:45.364Z,32.05
2018-10-18T11:29:12.995Z,32.88
2018-10-18T11:31:40.636Z,31.45
2018-10-18T11:34:08.232Z,27.32
2018-10-18T11:36:35.856Z,36.85
2018-10-18T11:39:05.167Z,32.30
2018-10-18T11:41:32.865Z,30.27
2018-10-18T11:44:00.531Z,32.03
2018-10-18T11:46:28.132Z,28.20
2018-10-18T11:48:55.696Z,33.30
2018-10-18T11:51:23.316Z,29.27
2018-10-18T11:53:50.847Z,29.75
2018-10-18T11:59:20.775Z,33.18
2018-10-18T12:01:48.335Z,31.82
2018-10-18T12:04:16.471Z,38.17
2018-10-18T12:06:44.027Z,36.68
2018-10-18T12:09:11.786Z,25.50
2018-10-18T12:11:39.387Z,27.80
2018-10-18T12:14:07.768Z,29.70
2018-10-18T12:16:35.272Z,28.57
2018-10-18T12:19:03.017Z,30.17
2018-10-18T12:21:30.809Z,29.18
2018-10-18T12:23:58.403Z,29.25
2018-10-18T12:26:25.990Z,33.78
2018-10-18T12:28:53.642Z,27.25
2018-10-18T12:31:21.172Z,28.23
2018-10-18T12:33:48.741Z,25.85
2018-10-18T12:36:16.331Z,29.70
2018-10-18T12:38:43.900Z,33.63
2018-10-18T12:41:11.649Z,28.32
2018-10-18T12:43:39.128Z,31.50
2018-10-18T12:46:06.700Z,28.55
2018-10-18T12:48:34.322Z,30.12
2018-10-18T12:51:01.812Z,30.88
2018-10-18T12:53:29.667Z,26.25
2018-10-18T12:55:57.244Z,32.42
2018-10-18T12:58:25.872Z,30.15
2018-10-18T13:00:53.432Z,35.03
2018-10-18T13:03:20.965Z,31.77
2018-10-18T13:05:48.611Z,32.17
2018-10-18T13:08:16.269Z,23.60
2018-10-18T13:10:43.687Z,33.05
2018-10-18T13:13:11.309Z,28.00
2018-10-18T13:15:38.888Z,33.55
2018-10-18T13:18:06.492Z,25.60
2018-10-18T13:20:34.040Z,26.05
2018-10-18T13:23:01.713Z,29.02
2018-10-18T13:25:29.398Z,24.05
2018-10-18T13:27:56.880Z,25.88
2018-10-18T13:30:24.432Z,26.02
2018-10-18T13:32:52.031Z,25.62
2018-10-18T13:35:19.586Z,29.75
2018-10-18T13:37:47.124Z,34.60
2018-10-18T13:40:14.741Z,37.20
2018-10-18T13:42:42.306Z,40.73
2018-10-18T13:45:09.907Z,27.22
2018-10-18T13:47:37.477Z,33.55
2018-10-18T13:50:05.884Z,47.73
2018-10-18T13:52:33.952Z,45.65
2018-10-18T13:55:01.497Z,36.08
2018-10-18T13:57:29.056Z,31.33
2018-10-18T14:00:32.339Z,38.30
2018-10-18T14:02:59.907Z,42.30
2018-10-18T14:05:27.926Z,49.53
2018-10-18T14:07:56.010Z,38.05
2018-10-18T14:10:23.567Z,42.08
2018-10-18T14:12:51.843Z,33.65
2018-10-18T14:15:19.544Z,38.50
2018-10-18T14:17:47.146Z,37.53
2018-10-18T14:20:14.786Z,39.33
2018-10-18T14:22:42.275Z,40.63
2018-10-18T14:25:10.003Z,36.75
2018-10-18T14:27:37.623Z,37.28
2018-10-18T14:30:06.942Z,33.95
2018-10-18T14:32:34.571Z,34.10
2018-10-18T14:35:02.231Z,37.05
2018-10-18T14:37:29.832Z,44.88
2018-10-18T14:39:57.429Z,37.42
2018-10-18T14:42:24.944Z,34.90
2018-10-18T14:44:52.512Z,40.20
2018-10-18T14:47:21.572Z,38.23
2018-10-18T14:49:49.092Z,38.48
2018-10-18T14:52:16.736Z,37.58
2018-10-18T14:54:44.932Z,36.85
2018-10-18T14:57:13.497Z,38.42
2018-10-18T14:59:41.489Z,33.02
2018-10-18T15:02:09.247Z,30.40
2018-10-18T15:04:37.200Z,42.35
2018-10-18T15:07:04.820Z,35.05
2018-10-18T15:09:32.465Z,36.90
2018-10-18T15:12:00.072Z,35.80
2018-10-18T15:14:28.304Z,28.62
2018-10-18T15:16:55.953Z,34.83
2018-10-18T15:19:23.479Z,32.35
2018-10-18T15:21:51.031Z,30.48
2018-10-18T15:24:18.637Z,28.85
2018-10-18T15:26:46.433Z,35.48
2018-10-18T15:29:13.805Z,35.75
2018-10-18T15:31:41.388Z,32.63
2018-10-18T15:34:09.004Z,31.35
2018-10-18T15:36:36.611Z,34.73
2018-10-18T15:39:06.913Z,34.20
2018-10-18T15:41:34.621Z,30.48
2018-10-18T15:44:08.977Z,30.75
2018-10-18T15:46:37.057Z,32.00
2018-10-18T15:49:05.353Z,29.40
2018-10-18T15:51:33.085Z,29.30
2018-10-18T15:54:01.712Z,29.57
2018-10-18T15:56:29.212Z,30.62
2018-10-18T15:58:56.855Z,37.75
2018-10-18T16:01:24.483Z,33.23
2018-10-18T16:03:52.079Z,33.60
2018-10-18T16:06:24.606Z,31.27
2018-10-18T16:08:55.479Z,34.20
2018-10-18T16:11:23.442Z,39.83
2018-10-18T16:13:51.997Z,39.38
2018-10-18T16:16:21.013Z,36.25
2018-10-18T16:18:50.059Z,31.05
2018-10-18T16:21:17.932Z,30.80
2018-10-18T16:23:45.813Z,32.75
2018-10-18T16:26:13.613Z,32.42
2018-10-18T16:28:41.052Z,37.55
2018-10-18T16:31:08.898Z,26.42
2018-10-18T16:33:36.929Z,31.87
2018-10-18T16:36:04.688Z,30.05
2018-10-18T16:38:32.341Z,31.73
2018-10-18T16:41:00.001Z,35.45
2018-10-18T16:43:27.628Z,29.95
2018-10-18T16:45:55.321Z,31.43
2018-10-18T16:48:23.009Z,27.73
2018-10-18T16:50:50.548Z,30.62
2018-10-18T16:53:18.066Z,67.45
2018-10-18T16:55:45.615Z,74.00
2018-10-18T16:58:13.263Z,31.17
2018-10-18T17:00:40.767Z,27.52
2018-10-18T17:03:08.336Z,31.87
2018-10-18T17:05:35.981Z,27.03
2018-10-18T17:08:03.626Z,29.27
2018-10-18T17:10:31.149Z,26.65
2018-10-18T17:12:59.143Z,25.65
2018-10-18T17:15:26.796Z,34.03
2018-10-18T17:17:54.509Z,31.25
2018-10-18T17:20:22.038Z,27.55
2018-10-18T17:22:49.535Z,29.37
2018-10-18T17:25:17.077Z,29.57
2018-10-18T17:27:44.969Z,27.30
2018-10-18T17:30:12.551Z,26.52
2018-10-18T17:32:40.137Z,30.30
2018-10-18T17:35:07.674Z,26.33
2018-10-18T17:37:35.410Z,26.37
2018-10-18T17:40:04.568Z,25.97
2018-10-18T17:42:32.199Z,25.00
2018-10-18T17:45:00.098Z,28.27
2018-10-18T17:47:27.801Z,31.80
2018-10-18T17:49:55.452Z,29.77
2018-10-18T17:52:23.043Z,26.53
2018-10-18T17:54:50.577Z,24.80
2018-10-18T17:57:18.203Z,28.27
2018-10-18T17:59:45.862Z,26.23
2018-10-18T18:02:13.421Z,26.85
2018-10-18T18:04:41.148Z,23.87
2018-10-18T18:07:10.009Z,31.00
2018-10-18T18:09:37.564Z,26.45
2018-10-18T18:12:05.261Z,34.50
2018-10-18T18:14:32.843Z,26.20
2018-10-18T18:17:00.380Z,28.57
2018-10-18T18:19:29.304Z,30.27
2018-10-18T18:21:58.155Z,27.67
2018-10-18T18:24:26.442Z,33.90
2018-10-18T18:26:54.220Z,36.88
2018-10-18T18:29:25.811Z,28.87
2018-10-18T18:31:53.288Z,30.47
2018-10-18T18:34:20.773Z,29.13
2018-10-18T18:36:55.196Z,34.97
2018-10-18T18:39:22.775Z,32.67
2018-10-18T18:41:50.234Z,31.63
2018-10-18T18:44:18.954Z,32.73
2018-10-18T18:46:46.487Z,30.13
2018-10-18T18:49:13.926Z,31.47
2018-10-18T18:51:41.544Z,30.25
2018-10-18T18:54:09.100Z,32.83
2018-10-18T18:56:36.600Z,33.70
2018-10-18T18:59:10.175Z,28.73
2018-10-18T19:01:37.691Z,27.17
2018-10-18T19:04:05.531Z,28.70
2018-10-18T19:06:33.037Z,26.03
2018-10-18T19:09:00.653Z,30.47
2018-10-18T19:11:28.295Z,29.03
2018-10-18T19:13:55.765Z,28.90
2018-10-18T19:16:23.184Z,26.90
2018-10-18T19:18:51.078Z,28.70
2018-10-18T19:21:18.541Z,28.07
2018-10-18T19:23:46.403Z,31.47
2018-10-18T19:26:13.942Z,32.07
2018-10-18T19:28:41.407Z,31.00
2018-10-18T19:31:08.811Z,30.97
2018-10-18T19:33:36.263Z,26.70
2018-10-18T19:36:04.493Z,30.20
2018-10-18T19:38:32.110Z,28.53
2018-10-18T19:40:59.652Z,31.30
2018-10-18T19:43:27.115Z,29.43
2018-10-18T19:45:54.572Z,27.93
2018-10-18T19:48:21.982Z,26.03
2018-10-18T19:50:50.041Z,28.87
2018-10-18T19:53:17.479Z,27.63
2018-10-18T19:55:44.903Z,32.07
2018-10-18T19:58:12.477Z,27.03
2018-10-18T20:00:43.111Z,32.57
2018-10-18T20:03:10.560Z,29.30
2018-10-18T20:05:38.247Z,29.03
2018-10-18T20:08:06.393Z,25.47
2018-10-18T20:10:34.303Z,29.57
2018-10-18T20:13:02.824Z,29.00
2018-10-18T20:15:30.359Z,25.60
2018-10-18T20:17:58.322Z,28.33
2018-10-18T20:20:25.743Z,27.07
2018-10-18T20:22:53.237Z,31.80
2018-10-18T20:25:20.861Z,27.17
2018-10-18T20:27:48.319Z,28.80
2018-10-18T20:30:15.891Z,26.07
2018-10-18T20:32:43.219Z,29.57
2018-10-18T20:35:11.353Z,30.07
2018-10-18T20:37:39.479Z,25.97
2018-10-18T20:40:08.835Z,27.63
2018-10-18T20:42:36.259Z,28.43
2018-10-18T20:45:04.123Z,26.10
2018-10-18T20:47:31.625Z,28.80
2018-10-18T20:49:58.969Z,27.07
2018-10-18T20:52:26.655Z,24.43
2018-10-18T20:54:54.099Z,29.43
2018-10-18T20:57:21.619Z,25.00
2018-10-18T20:59:49.095Z,22.43
2018-10-18T21:02:16.542Z,26.00
2018-10-18T21:04:43.982Z,26.70
2018-10-18T21:07:11.443Z,25.67
2018-10-18T21:09:38.884Z,23.33
2018-10-18T21:12:06.404Z,22.53
2018-10-18T21:14:33.799Z,31.20
2018-10-18T21:17:01.327Z,20.80
2018-10-18T21:19:28.789Z,27.37
2018-10-18T21:21:56.535Z,19.93
2018-10-18T21:24:25.991Z,22.77
2018-10-18T21:26:53.556Z,18.83
2018-10-18T21:29:22.090Z,19.80
2018-10-18T21:31:51.709Z,15.67
2018-10-18T21:34:20.861Z,18.87
2018-10-18T21:36:48.335Z,15.73
2018-10-18T21:39:33.551Z,19.17
2018-10-18T21:42:04.311Z,16.07
2018-10-18T21:44:33.615Z,17.63
2018-10-18T21:47:01.419Z,14.73
2018-10-18T21:49:29.571Z,11.77
2018-10-18T21:51:57.332Z,12.23
2018-10-18T21:54:25.404Z,14.23
2018-10-18T21:56:52.892Z,12.17
2018-10-18T21:59:20.335Z,12.20
2018-10-18T22:01:47.892Z,10.47
2018-10-18T22:04:16.070Z,10.10
2018-10-18T22:06:43.911Z,10.70
2018-10-18T22:09:11.431Z,12.07
2018-10-18T22:11:38.839Z,9.10
2018-10-18T22:14:07.159Z,9.60
2018-10-18T22:16:34.972Z,8.47
2018-10-18T22:19:02.726Z,8.43
2018-10-18T22:21:30.229Z,9.03
2018-10-18T22:23:57.727Z,8.33
2018-10-18T22:26:25.184Z,7.67
2018-10-18T22:28:52.739Z,8.40
2018-10-18T22:31:20.214Z,7.93
2018-10-18T22:33:47.684Z,7.37
2018-10-18T22:36:15.218Z,10.77
2018-10-18T22:38:42.763Z,7.37
2018-10-18T22:41:10.327Z,9.47
2018-10-18T22:43:37.690Z,7.60
2018-10-18T22:46:05.188Z,8.63
2018-10-18T22:48:32.605Z,7.47
2018-10-18T22:51:00.103Z,8.87
2018-10-18T22:53:27.917Z,6.00
2018-10-18T22:55:55.449Z,5.87
2018-10-18T22:58:22.965Z,6.23
2018-10-18T23:00:50.424Z,5.67
2018-10-18T23:03:19.927Z,6.83
2018-10-18T23:05:47.907Z,10.53
2018-10-18T23:08:15.475Z,5.83
2018-10-18T23:10:43.090Z,6.17
2018-10-18T23:13:10.521Z,5.17
2018-10-18T23:15:38.095Z,5.07
2018-10-18T23:18:06.115Z,6.17
2018-10-18T23:20:33.557Z,7.83
2018-10-18T23:23:01.082Z,6.40
2018-10-18T23:25:28.548Z,5.33
2018-10-18T23:27:55.990Z,5.63
2018-10-18T23:30:23.478Z,6.83
2018-10-18T23:32:50.991Z,4.63
2018-10-18T23:35:18.444Z,5.63
2018-10-18T23:37:45.863Z,5.70
2018-10-18T23:40:13.380Z,5.83
2018-10-18T23:42:40.808Z,4.77
2018-10-18T23:45:08.800Z,6.40
2018-10-18T23:47:36.231Z,6.23
2018-10-18T23:50:03.799Z,4.10
2018-10-18T23:52:31.579Z,5.13
2018-10-18T23:54:59.120Z,5.53
2018-10-18T23:57:26.543Z,5.23
2018-10-18T23:59:53.967Z,4.57
